Time;durP1;ratioP1;P1;durP2;ratioP2;P2;SDS_P1;SDS_P2;PMS_P1;PMS_P2;Temp;Humidity;BMP_temperature;BMP_pressure;BME280_temperature;BME280_humidity;BME280_pressure;Samples;Min_cycle;Max_cycle;Signal;HPM_P1;HPM_P2
2021/03/21 00:01:10;;;;;;;1.40;1.02;;;20.40;39.80;;;;;;5082059;28;20052;-51
2021/03/21 00:03:36;;;;;;;1.83;1.20;;;20.40;39.80;;;;;;5080885;28;20139;-46
2021/03/21 00:06:03;;;;;;;2.25;0.98;;;20.40;39.80;;;;;;5080202;28;20157;-46
2021/03/21 00:08:31;;;;;;;1.95;1.02;;;20.40;39.80;;;;;;5084112;28;20519;-51
2021/03/21 00:11:04;;;;;;;1.33;1.00;;;20.40;39.80;;;;;;5081671;28;20472;-52
2021/03/21 00:13:29;;;;;;;1.65;1.08;;;20.40;39.70;;;;;;5080763;28;20380;-52
2021/03/21 00:15:57;;;;;;;1.38;0.88;;;20.40;39.70;;;;;;5084233;28;20027;-52
2021/03/21 00:18:26;;;;;;;1.40;0.88;;;20.40;39.60;;;;;;5083519;28;20063;-51
2021/03/21 00:20:52;;;;;;;2.40;1.30;;;20.40;39.60;;;;;;5079592;28;20048;-47
2021/03/21 00:23:18;;;;;;;1.58;0.80;;;20.40;39.60;;;;;;5082135;28;20066;-47
2021/03/21 00:25:44;;;;;;;1.80;1.10;;;20.40;39.60;;;;;;5082566;28;20709;-48
2021/03/21 00:28:16;;;;;;;1.63;1.10;;;20.40;39.50;;;;;;5081963;28;20468;-49
2021/03/21 00:30:44;;;;;;;1.58;0.93;;;20.40;39.50;;;;;;5082621;28;20505;-48
2021/03/21 00:33:11;;;;;;;1.55;1.05;;;20.40;39.50;;;;;;5080130;28;20025;-47
2021/03/21 00:35:38;;;;;;;2.08;1.05;;;20.40;39.50;;;;;;5080956;28;20520;-51
2021/03/21 00:38:15;;;;;;;2.53;1.02;;;20.40;39.50;;;;;;5079985;28;20036;-48
2021/03/21 00:40:41;;;;;;;1.25;1.08;;;20.40;39.40;;;;;;5081227;28;20032;-47
2021/03/21 00:43:06;;;;;;;1.63;0.98;;;20.40;39.40;;;;;;5079755;28;20028;-46
2021/03/21 00:45:32;;;;;;;3.05;1.25;;;20.30;39.30;;;;;;5079356;28;20059;-52
2021/03/21 00:47:58;;;;;;;1.35;1.00;;;20.30;39.40;;;;;;5077978;28;20457;-50
2021/03/21 00:50:31;;;;;;;1.40;1.10;;;20.30;39.30;;;;;;5082466;28;20113;-51
2021/03/21 00:52:56;;;;;;;2.33;1.35;;;20.40;39.30;;;;;;5080329;28;20436;-51
2021/03/21 00:55:23;;;;;;;2.55;1.20;;;20.40;39.30;;;;;;5080600;28;20028;-48
2021/03/21 00:57:48;;;;;;;0.80;0.70;;;20.40;39.20;;;;;;5080387;28;20037;-47
2021/03/21 01:00:39;;;;;;;1.60;1.08;;;20.40;39.20;;;;;;5080828;28;20563;-48
2021/03/21 01:03:06;;;;;;;1.92;0.98;;;20.40;39.20;;;;;;5072364;28;20044;-47
2021/03/21 01:05:37;;;;;;;2.33;0.82;;;20.40;39.20;;;;;;5083286;28;20402;-48
2021/03/21 01:08:20;;;;;;;1.48;0.80;;;20.40;39.20;;;;;;5084066;28;20419;-52
2021/03/21 01:10:47;;;;;;;1.95;0.85;;;20.40;39.10;;;;;;5084934;28;20039;-49
2021/03/21 01:13:14;;;;;;;1.50;1.10;;;20.40;39.10;;;;;;5088327;28;20032;-52
2021/03/21 01:15:39;;;;;;;1.50;0.82;;;20.40;39.10;;;;;;5087143;28;20148;-48
2021/03/21 01:18:06;;;;;;;1.02;0.88;;;20.40;39.00;;;;;;5086826;28;20118;-49
2021/03/21 01:20:33;;;;;;;1.73;0.90;;;20.40;39.00;;;;;;5087531;28;20074;-46
2021/03/21 01:22:59;;;;;;;1.23;0.70;;;20.40;38.90;;;;;;5089228;28;20099;-51
2021/03/21 01:25:26;;;;;;;1.20;0.90;;;20.40;38.90;;;;;;5084859;28;20436;-50
2021/03/21 01:27:54;;;;;;;1.48;0.90;;;20.40;38.90;;;;;;5090324;28;20028;-47
2021/03/21 01:30:22;;;;;;;1.23;0.90;;;20.40;38.90;;;;;;5089043;28;20045;-50
2021/03/21 01:32:48;;;;;;;1.60;1.20;;;20.40;38.90;;;;;;5087767;28;20036;-47
2021/03/21 01:35:14;;;;;;;1.25;0.88;;;20.40;38.90;;;;;;5086301;28;20093;-53
2021/03/21 01:37:39;;;;;;;1.48;0.98;;;20.40;38.90;;;;;;5081452;28;20458;-53
2021/03/21 01:40:14;;;;;;;1.42;0.90;;;20.40;38.80;;;;;;5088637;28;20032;-52
2021/03/21 01:42:43;;;;;;;2.03;1.20;;;20.40;38.80;;;;;;5085914;28;20024;-47
2021/03/21 01:45:29;;;;;;;2.97;0.80;;;20.40;38.80;;;;;;5091020;28;20020;-50
2021/03/21 01:47:55;;;;;;;2.00;1.13;;;20.40;38.80;;;;;;5088500;28;20071;-50
2021/03/21 01:50:30;;;;;;;1.63;0.95;;;20.40;38.70;;;;;;5089334;28;20036;-50
2021/03/21 01:52:56;;;;;;;1.30;0.90;;;20.40;38.80;;;;;;5089020;28;20469;-52
2021/03/21 01:55:23;;;;;;;1.38;1.00;;;20.40;38.70;;;;;;5088579;28;20082;-47
2021/03/21 01:57:51;;;;;;;1.25;0.80;;;20.40;38.80;;;;;;5089606;28;20036;-49
2021/03/21 02:00:18;;;;;;;2.17;1.20;;;20.40;38.70;;;;;;5087490;28;20032;-51
2021/03/21 02:02:44;;;;;;;1.92;1.05;;;20.40;38.70;;;;;;5088729;28;20028;-51
2021/03/21 02:05:11;;;;;;;1.48;0.90;;;20.40;38.60;;;;;;5089239;28;20063;-51
2021/03/21 02:07:48;;;;;;;1.42;1.00;;;20.40;38.70;;;;;;5084209;28;20081;-51
2021/03/21 02:10:17;;;;;;;1.30;0.90;;;20.40;38.60;;;;;;5084762;28;20101;-50
2021/03/21 02:13:21;;;;;;;2.33;1.52;;;20.40;38.60;;;;;;5088022;28;20035;-46
2021/03/21 02:16:12;;;;;;;0.98;0.80;;;20.40;38.60;;;;;;5085684;28;20024;-52
2021/03/21 02:19:09;;;;;;;0.90;0.70;;;20.40;38.50;;;;;;5081860;28;20048;-50
2021/03/21 02:21:49;;;;;;;1.20;0.88;;;20.40;39.10;;;;;;5083961;28;20047;-48
2021/03/21 02:24:33;;;;;;;1.20;0.90;;;20.40;38.50;;;;;;5083918;28;20538;-48
2021/03/21 02:27:05;;;;;;;1.75;1.45;;;20.50;38.50;;;;;;5085004;28;20041;-50
2021/03/21 02:29:34;;;;;;;;;;;20.40;38.50;;;;;;5083961;28;20370;-48
2021/03/21 02:32:07;;;;;;;1.70;1.10;;;20.50;38.50;;;;;;5085194;28;19998;-49
2021/03/21 02:34:48;;;;;;;1.08;0.95;;;20.40;38.40;;;;;;5082645;28;20526;-50
2021/03/21 02:37:32;;;;;;;1.52;0.90;;;20.50;38.50;;;;;;5086123;28;20027;-46
2021/03/21 02:40:13;;;;;;;1.55;1.05;;;20.40;38.50;;;;;;5081566;28;20058;-49
2021/03/21 02:42:45;;;;;;;1.17;0.80;;;20.40;38.40;;;;;;5080508;28;20074;-46
2021/03/21 02:45:21;;;;;;;1.25;0.82;;;20.40;38.30;;;;;;5081239;28;20028;-51
2021/03/21 02:47:49;;;;;;;1.63;1.10;;;20.50;38.50;;;;;;5082649;28;20578;-47
2021/03/21 02:50:33;;;;;;;1.25;0.98;;;20.50;38.40;;;;;;5088035;28;20035;-48
2021/03/21 02:53:24;;;;;;;1.15;0.88;;;20.40;38.30;;;;;;5081463;28;20097;-49
2021/03/21 02:55:54;;;;;;;1.60;0.93;;;20.50;38.30;;;;;;5073480;28;20032;-47
2021/03/21 02:58:29;;;;;;;1.40;0.77;;;20.50;38.40;;;;;;5079609;28;20460;-49
2021/03/21 03:01:04;;;;;;;1.00;0.80;;;20.50;38.30;;;;;;5091550;28;20091;-49
2021/03/21 03:03:33;;;;;;;1.52;0.82;;;20.40;38.20;;;;;;5083890;28;20031;-47
2021/03/21 03:06:03;;;;;;;1.25;1.00;;;20.50;38.30;;;;;;5093006;28;20040;-47
2021/03/21 03:08:38;;;;;;;0.98;0.80;;;20.50;38.30;;;;;;5072738;28;20542;-48
2021/03/21 03:11:10;;;;;;;1.58;0.93;;;20.50;38.30;;;;;;5073736;28;20029;-47
2021/03/21 03:14:04;;;;;;;1.25;0.80;;;20.50;38.30;;;;;;5076316;28;20530;-48
2021/03/21 03:17:00;;;;;;;1.60;0.88;;;20.50;38.30;;;;;;5083264;28;20085;-47
2021/03/21 03:20:05;;;;;;;1.58;0.90;;;20.50;38.30;;;;;;5092563;28;20039;-51
2021/03/21 03:22:41;;;;;;;0.90;0.68;;;20.50;38.30;;;;;;5091663;28;20032;-51
2021/03/21 03:25:49;;;;;;;0.98;0.70;;;20.50;38.30;;;;;;5084461;28;20020;-48
2021/03/21 03:28:22;;;;;;;1.70;1.20;;;20.50;38.20;;;;;;5092891;28;20031;-49
2021/03/21 03:30:59;;;;;;;1.52;1.17;;;20.50;38.30;;;;;;5091753;28;20609;-48
2021/03/21 03:33:27;;;;;;;1.83;0.70;;;20.40;38.30;;;;;;5092496;28;20472;-51
2021/03/21 03:35:53;;;;;;;1.83;1.10;;;20.40;38.30;;;;;;5083376;28;20027;-46
2021/03/21 03:38:21;;;;;;;1.42;0.93;;;20.50;38.30;;;;;;5092847;28;20099;-48
2021/03/21 03:40:47;;;;;;;2.05;1.15;;;20.40;38.10;;;;;;5091706;28;20038;-49
2021/03/21 03:43:37;;;;;;;1.38;1.00;;;20.50;38.20;;;;;;5089616;28;20030;-50
2021/03/21 03:46:26;;;;;;;1.52;0.85;;;20.50;38.20;;;;;;5083095;28;20025;-47
2021/03/21 03:49:17;;;;;;;1.13;0.73;;;20.50;38.20;;;;;;5086221;28;20073;-48
2021/03/21 03:51:58;;;;;;;2.35;1.05;;;20.50;38.20;;;;;;5073237;28;20040;-47
2021/03/21 03:54:42;;;;;;;2.55;0.95;;;20.50;38.20;;;;;;5075732;28;20024;-48
2021/03/21 03:57:19;;;;;;;1.23;0.85;;;20.50;38.70;;;;;;5083724;28;20475;-52
2021/03/21 04:00:06;;;;;;;1.33;0.80;;;20.50;38.10;;;;;;5071983;28;20165;-44
2021/03/21 04:02:42;;;;;;;0.85;0.77;;;20.50;38.10;;;;;;5071851;28;20374;-47
2021/03/21 04:05:14;;;;;;;1.38;0.98;;;20.50;38.10;;;;;;5088013;28;20096;-50
2021/03/21 04:07:50;;;;;;;1.50;0.90;;;20.50;38.10;;;;;;5080603;28;20070;-50
2021/03/21 04:10:30;;;;;;;1.20;0.80;;;20.50;38.10;;;;;;5077290;28;20032;-48
2021/03/21 04:13:27;;;;;;;0.93;0.73;;;20.40;38.10;;;;;;5090845;28;20028;-46
2021/03/21 04:15:55;;;;;;;1.08;0.68;;;20.50;38.10;;;;;;5091458;28;20085;-50
2021/03/21 04:18:38;;;;;;;2.55;1.05;;;20.50;38.10;;;;;;5082009;28;20119;-48
2021/03/21 04:21:21;;;;;;;1.30;1.00;;;20.50;38.20;;;;;;5072046;28;20025;-49
2021/03/21 04:24:04;;;;;;;1.30;0.90;;;20.50;38.10;;;;;;5083085;28;20595;-51
2021/03/21 04:26:51;;;;;;;1.52;0.88;;;20.50;38.10;;;;;;5082160;28;20036;-51
2021/03/21 04:29:33;;;;;;;1.80;0.95;;;20.50;38.10;;;;;;5078160;28;20028;-51
2021/03/21 04:32:05;;;;;;;3.00;1.00;;;20.50;38.10;;;;;;5078751;28;20024;-50
2021/03/21 04:34:32;;;;;;;1.17;1.02;;;20.50;38.10;;;;;;5090736;28;20032;-49
2021/03/21 04:36:59;;;;;;;2.22;0.90;;;20.50;38.10;;;;;;5085857;28;20039;-49
2021/03/21 04:39:33;;;;;;;1.88;0.90;;;20.50;38.10;;;;;;5080280;28;20025;-48
2021/03/21 04:42:08;;;;;;;1.05;0.80;;;20.50;38.10;;;;;;5070679;28;20374;-49
2021/03/21 04:44:49;;;;;;;1.42;0.90;;;20.50;38.20;;;;;;5072195;28;20037;-52
2021/03/21 04:47:17;;;;;;;2.03;0.90;;;20.50;38.20;;;;;;5090596;28;20032;-50
2021/03/21 04:49:43;;;;;;;1.05;0.73;;;20.50;38.10;;;;;;5081553;28;20373;-50
2021/03/21 04:52:35;;;;;;;1.63;0.90;;;20.50;38.10;;;;;;5090595;28;20516;-51
2021/03/21 04:55:03;;;;;;;1.17;0.80;;;20.50;38.10;;;;;;5071747;28;20037;-50
2021/03/21 04:57:36;;;;;;;1.10;0.75;;;20.50;38.10;;;;;;5071370;28;20041;-50
2021/03/21 05:00:09;;;;;;;1.83;0.77;;;20.50;38.10;;;;;;5075642;28;20028;-49
2021/03/21 05:02:37;;;;;;;1.35;0.80;;;20.50;38.10;;;;;;5089883;28;20085;-47
2021/03/21 05:05:30;;;;;;;1.08;0.77;;;20.50;38.20;;;;;;5082739;28;20085;-53
2021/03/21 05:08:13;;;;;;;1.55;0.90;;;20.50;38.10;;;;;;5079110;28;20125;-47
2021/03/21 05:10:42;;;;;;;2.20;1.13;;;20.50;38.10;;;;;;5090291;28;20050;-51
2021/03/21 05:13:22;;;;;;;1.90;1.05;;;20.50;38.10;;;;;;5073604;28;20512;-49
2021/03/21 05:15:58;;;;;;;1.23;0.80;;;20.50;38.10;;;;;;5074637;28;20029;-52
2021/03/21 05:18:47;;;;;;;1.70;1.20;;;20.50;38.10;;;;;;5079950;28;20052;-49
2021/03/21 05:21:29;;;;;;;1.55;0.95;;;20.50;38.20;;;;;;5072832;28;20028;-54
2021/03/21 05:24:01;;;;;;;3.15;1.27;;;20.50;38.20;;;;;;5076515;28;20047;-49
2021/03/21 05:26:41;;;;;;;1.20;0.93;;;20.50;38.10;;;;;;5071589;28;20253;-49
2021/03/21 05:29:35;;;;;;;1.70;0.95;;;20.50;38.10;;;;;;5089802;28;20054;-51
2021/03/21 05:32:01;;;;;;;2.45;1.13;;;20.50;38.10;;;;;;5081532;28;20522;-52
2021/03/21 05:34:27;;;;;;;3.33;1.30;;;20.50;38.10;;;;;;5074752;28;20055;-48
2021/03/21 05:37:26;;;;;;;1.35;0.80;;;20.50;38.20;;;;;;5075114;28;20056;-49
2021/03/21 05:40:00;;;;;;;1.75;0.80;;;20.50;38.20;;;;;;5084723;28;20058;-50
2021/03/21 05:43:04;;;;;;;2.33;1.00;;;20.50;38.10;;;;;;5073599;28;20024;-50
2021/03/21 05:45:51;;;;;;;1.50;0.70;;;20.50;38.10;;;;;;5035260;28;20124;-49
2021/03/21 05:48:32;;;;;;;1.00;0.80;;;20.50;38.20;;;;;;5071242;28;20037;-50
2021/03/21 05:51:15;;;;;;;1.48;0.85;;;20.50;38.10;;;;;;5070988;28;20485;-47
2021/03/21 05:54:39;;;;;;;1.40;0.85;;;20.50;38.10;;;;;;5071224;28;20040;-52
2021/03/21 05:57:38;;;;;;;1.50;0.90;;;20.50;38.10;;;;;;5030221;28;20055;-47
2021/03/21 06:00:39;;;;;;;1.38;0.82;;;20.50;38.10;;;;;;5084465;28;20094;-49
2021/03/21 06:03:13;;;;;;;1.10;0.70;;;20.50;38.10;;;;;;5094573;28;20039;-48
2021/03/21 06:05:39;;;;;;;1.38;0.75;;;20.50;38.10;;;;;;5074489;28;20055;-51
2021/03/21 06:08:17;;;;;;;0.90;0.80;;;20.50;38.10;;;;;;5079291;28;20453;-49
2021/03/21 06:11:28;;;;;;;1.40;1.13;;;20.50;38.10;;;;;;5081662;28;20082;-53
2021/03/21 06:14:22;;;;;;;1.88;0.70;;;20.50;38.10;;;;;;5079183;28;20511;-49
2021/03/21 06:17:24;;;;;;;1.40;0.82;;;20.50;38.10;;;;;;5081925;28;20028;-51
2021/03/21 06:19:49;;;;;;;;;;;20.50;38.00;;;;;;5082391;28;20028;-46
2021/03/21 06:22:34;;;;;;;1.80;0.85;;;20.50;38.10;;;;;;5082381;28;19912;-50
2021/03/21 06:25:28;;;;;;;0.98;0.70;;;20.50;38.00;;;;;;5084966;28;20115;-50
2021/03/21 06:28:31;;;;;;;1.10;0.70;;;20.50;38.10;;;;;;5081623;28;20786;-50
2021/03/21 06:31:27;;;;;;;1.05;0.68;;;20.50;38.10;;;;;;5084461;28;20044;-46
2021/03/21 06:34:01;;;;;;;1.20;0.80;;;20.50;38.10;;;;;;5083259;28;20020;-48
2021/03/21 06:37:05;;;;;;;1.45;0.90;;;20.50;38.10;;;;;;5083024;28;20035;-47
2021/03/21 06:39:45;;;;;;;1.08;0.90;;;20.50;38.10;;;;;;5085298;28;20086;-53
2021/03/21 06:42:14;;;;;;;1.30;0.98;;;20.50;38.20;;;;;;5086276;28;20044;-48
2021/03/21 06:45:13;;;;;;;1.20;0.95;;;20.50;38.20;;;;;;5081361;28;20088;-50
2021/03/21 06:48:01;;;;;;;2.13;1.00;;;20.50;38.20;;;;;;5081814;28;21556;-48
2021/03/21 06:50:49;;;;;;;1.10;0.88;;;20.50;38.10;;;;;;5086053;28;20032;-48
2021/03/21 06:53:20;;;;;;;2.53;1.27;;;20.50;38.10;;;;;;5084193;28;20021;-48
2021/03/21 06:55:56;;;;;;;1.77;0.90;;;20.50;38.10;;;;;;5082928;28;20124;-50
2021/03/21 06:58:30;;;;;;;1.77;0.90;;;20.50;38.20;;;;;;5083274;28;20039;-45
2021/03/21 07:01:15;;;;;;;4.80;1.15;;;20.50;38.10;;;;;;5083501;28;20031;-48
2021/03/21 07:04:18;;;;;;;2.45;1.50;;;20.60;38.40;;;;;;5081872;28;20032;-46
2021/03/21 07:07:09;;;;;;;4.30;1.20;;;20.60;38.50;;;;;;5085098;28;20044;-47
2021/03/21 07:10:08;;;;;;;2.65;1.10;;;20.60;38.80;;;;;;5079203;28;20073;-52
2021/03/21 07:13:09;;;;;;;4.13;1.00;;;20.60;38.80;;;;;;5081989;28;20024;-53
2021/03/21 07:15:44;;;;;;;3.03;1.23;;;20.60;38.90;;;;;;5021046;28;20092;-51
2021/03/21 07:18:29;;;;;;;1.85;1.15;;;20.60;39.00;;;;;;5074454;28;20527;-48
2021/03/21 07:21:19;;;;;;;1.80;1.00;;;20.60;39.10;;;;;;5082176;28;20104;-46
2021/03/21 07:24:10;;;;;;;1.40;0.82;;;20.60;39.10;;;;;;5081403;28;20480;-49
2021/03/21 07:27:22;;;;;;;2.47;0.90;;;20.60;39.00;;;;;;5079636;28;20082;-47
2021/03/21 07:29:50;;;;;;;1.92;0.80;;;20.60;39.00;;;;;;5082058;28;20054;-51
2021/03/21 07:32:50;;;;;;;2.17;1.08;;;20.60;39.10;;;;;;5083384;28;20465;-46
2021/03/21 07:35:49;;;;;;;1.42;0.85;;;20.60;39.10;;;;;;5082317;28;20024;-42
2021/03/21 07:38:18;;;;;;;1.83;1.08;;;20.70;39.20;;;;;;5084207;28;20032;-43
2021/03/21 07:40:51;;;;;;;2.88;0.90;;;20.60;39.10;;;;;;5079449;28;20474;-45
2021/03/21 07:43:49;;;;;;;1.92;0.88;;;20.70;39.20;;;;;;5079820;28;20511;-48
2021/03/21 07:46:51;;;;;;;1.88;1.10;;;20.70;39.20;;;;;;5080152;28;20024;-45
2021/03/21 07:49:29;;;;;;;1.98;0.77;;;20.70;39.20;;;;;;5081071;28;20456;-46
2021/03/21 07:52:13;;;;;;;2.92;0.73;;;20.70;39.30;;;;;;5083935;28;20031;-50
2021/03/21 07:55:12;;;;;;;4.50;0.90;;;20.70;39.50;;;;;;5082664;28;20020;-48
2021/03/21 07:57:40;;;;;;;1.73;0.77;;;20.70;39.60;;;;;;5081367;28;20040;-46
2021/03/21 08:00:09;;;;;;;2.17;0.80;;;20.70;39.70;;;;;;5080294;28;20029;-45
2021/03/21 08:02:34;;;;;;;6.45;1.45;;;20.80;40.10;;;;;;5081498;28;20059;-49
2021/03/21 08:05:13;;;;;;;4.43;1.10;;;20.80;40.10;;;;;;5082138;28;20036;-46
2021/03/21 08:07:42;;;;;;;13.68;2.22;;;20.80;40.10;;;;;;5081384;28;20040;-47
2021/03/21 08:10:17;;;;;;;10.85;1.33;;;20.90;40.20;;;;;;5083667;28;20032;-45
2021/03/21 08:12:55;;;;;;;5.70;1.20;;;20.90;40.20;;;;;;5082275;28;20028;-47
2021/03/21 08:15:23;;;;;;;4.78;1.23;;;20.80;40.30;;;;;;5080413;28;20104;-53
2021/03/21 08:17:58;;;;;;;5.82;1.10;;;20.80;40.40;;;;;;5081339;28;20077;-49
2021/03/21 08:20:29;;;;;;;4.20;1.08;;;20.80;40.70;;;;;;5079421;28;20032;-46
2021/03/21 08:23:19;;;;;;;4.57;1.20;;;20.80;41.10;;;;;;5080786;28;20035;-49
2021/03/21 08:25:45;;;;;;;5.90;1.10;;;20.80;41.20;;;;;;5081659;28;20024;-50
2021/03/21 08:28:15;;;;;;;2.90;0.93;;;20.70;41.10;;;;;;5080777;28;20033;-53
2021/03/21 08:30:59;;;;;;;7.78;1.20;;;20.80;41.20;;;;;;5080260;28;20067;-47
2021/03/21 08:33:34;;;;;;;5.28;1.05;;;20.80;41.00;;;;;;5083291;28;20033;-50
2021/03/21 08:36:19;;;;;;;3.42;1.10;;;20.70;41.00;;;;;;5079691;28;20027;-49
2021/03/21 08:39:06;;;;;;;4.32;1.02;;;20.70;41.00;;;;;;5080626;28;20085;-51
2021/03/21 08:41:46;;;;;;;3.40;1.20;;;20.70;41.10;;;;;;5082234;28;20020;-48
2021/03/21 08:44:28;;;;;;;2.80;1.35;;;20.70;41.10;;;;;;5081176;28;20082;-50
2021/03/21 08:46:54;;;;;;;4.18;1.00;;;20.70;41.10;;;;;;5079408;28;20037;-49
2021/03/21 08:49:24;;;;;;;4.80;1.48;;;20.70;41.10;;;;;;5083488;28;20423;-47
2021/03/21 08:51:50;;;;;;;2.15;0.98;;;20.80;41.00;;;;;;5079592;28;20032;-49
2021/03/21 08:54:28;;;;;;;3.78;1.08;;;20.80;41.20;;;;;;5076986;28;20020;-50
2021/03/21 08:57:00;;;;;;;5.78;1.00;;;20.80;41.50;;;;;;5080770;28;20731;-47
2021/03/21 08:59:45;;;;;;;4.70;0.93;;;20.80;41.70;;;;;;5080824;28;20052;-50
2021/03/21 09:02:15;;;;;;;2.47;0.90;;;20.80;41.80;;;;;;5080485;28;20382;-53
2021/03/21 09:05:06;;;;;;;3.85;1.33;;;20.80;42.00;;;;;;5079299;28;20070;-49
2021/03/21 09:07:34;;;;;;;5.50;0.90;;;20.80;42.00;;;;;;5088979;28;20402;-53
2021/03/21 09:10:11;;;;;;;2.75;1.13;;;20.80;41.90;;;;;;5079898;28;20499;-52
2021/03/21 09:12:46;;;;;;;8.77;1.77;;;20.80;42.70;;;;;;5087989;28;20393;-47
2021/03/21 09:15:22;;;;;;;4.15;1.42;;;20.90;42.20;;;;;;5081807;28;20032;-55
2021/03/21 09:18:25;;;;;;;7.88;1.92;;;21.00;43.20;;;;;;5081893;28;20384;-48
2021/03/21 09:20:56;;;;;;;4.68;1.10;;;21.10;43.00;;;;;;4999363;28;20034;-50
2021/03/21 09:23:53;;;;;;;3.28;1.25;;;21.20;43.10;;;;;;5062642;28;20036;-52
2021/03/21 09:26:20;;;;;;;7.10;1.00;;;21.20;42.70;;;;;;5079473;28;20025;-49
2021/03/21 09:28:53;;;;;;;6.28;2.05;;;21.20;42.90;;;;;;5070831;28;20041;-46
2021/03/21 09:31:20;;;;;;;5.15;1.02;;;21.10;42.70;;;;;;5074098;28;20056;-46
2021/03/21 09:33:57;;;;;;;7.70;1.08;;;21.10;42.60;;;;;;5080770;28;20063;-47
2021/03/21 09:36:48;;;;;;;4.82;0.95;;;21.10;42.40;;;;;;5075496;28;20419;-44
2021/03/21 09:39:31;;;;;;;6.53;0.90;;;21.10;42.60;;;;;;5075421;28;20099;-46
2021/03/21 09:41:57;;;;;;;4.88;1.63;;;21.10;42.50;;;;;;5079120;28;20037;-46
2021/03/21 09:44:28;;;;;;;3.55;1.13;;;21.10;42.40;;;;;;5090483;28;20036;-45
2021/03/21 09:47:40;;;;;;;2.92;1.25;;;21.00;42.40;;;;;;5078067;28;20082;-46
2021/03/21 09:50:21;;;;;;;8.70;1.45;;;21.00;42.40;;;;;;5088905;28;20465;-48
2021/03/21 09:53:05;;;;;;;6.65;1.25;;;20.90;42.60;;;;;;5086783;28;20078;-47
2021/03/21 09:55:53;;;;;;;9.13;2.15;;;21.00;43.30;;;;;;5089846;28;20385;-48
2021/03/21 09:58:39;;;;;;;10.50;1.48;;;21.00;43.70;;;;;;5081529;28;20401;-46
2021/03/21 10:01:26;;;;;;;10.88;2.25;;;21.00;43.00;;;;;;5085012;28;20039;-46
2021/03/21 10:04:14;;;;;;;12.35;1.90;;;20.90;43.20;;;;;;5093740;28;20039;-48
2021/03/21 10:06:42;;;;;;;10.10;1.77;;;21.00;43.40;;;;;;5086918;28;20047;-46
2021/03/21 10:09:18;;;;;;;4.82;1.20;;;21.00;43.40;;;;;;5082753;28;20432;-50
2021/03/21 10:11:51;;;;;;;6.78;1.40;;;20.90;43.30;;;;;;5093596;28;20020;-49
2021/03/21 10:14:23;;;;;;;13.90;1.67;;;21.00;43.00;;;;;;5093665;28;20097;-47
2021/03/21 10:16:50;;;;;;;5.53;1.40;;;20.90;42.80;;;;;;5073601;28;20032;-45
2021/03/21 10:19:46;;;;;;;3.75;1.05;;;20.90;43.10;;;;;;5076062;28;20112;-46
2021/03/21 10:22:18;;;;;;;10.25;1.70;;;20.90;43.20;;;;;;5083397;28;20021;-46
2021/03/21 10:24:46;;;;;;;3.78;1.20;;;20.90;43.20;;;;;;5073694;28;20470;-46
2021/03/21 10:27:11;;;;;;;9.32;1.85;;;20.80;43.00;;;;;;5074500;28;20036;-48
2021/03/21 10:29:40;;;;;;;5.85;1.10;;;20.80;43.30;;;;;;5081443;28;20040;-49
2021/03/21 10:32:22;;;;;;;8.52;1.45;;;20.80;43.40;;;;;;5074492;28;20024;-47
2021/03/21 10:34:49;;;;;;;8.68;1.75;;;20.80;43.50;;;;;;5074788;28;20032;-49
2021/03/21 10:37:47;;;;;;;2.90;1.08;;;20.80;43.40;;;;;;5089382;28;20043;-48
2021/03/21 10:40:23;;;;;;;5.35;1.30;;;20.80;43.30;;;;;;5043286;28;20048;-48
2021/03/21 10:43:03;;;;;;;3.33;1.00;;;20.80;43.00;;;;;;5076593;28;20028;-46
2021/03/21 10:45:35;;;;;;;4.13;1.05;;;20.80;42.90;;;;;;5079293;28;20034;-48
2021/03/21 10:48:08;;;;;;;5.00;1.30;;;20.80;42.90;;;;;;5092655;28;20079;-47
2021/03/21 10:50:33;;;;;;;3.38;1.30;;;20.80;42.80;;;;;;5089509;28;20389;-48
2021/03/21 10:53:30;;;;;;;4.65;1.13;;;20.80;42.70;;;;;;5073232;28;20035;-46
2021/03/21 10:56:07;;;;;;;4.65;0.95;;;20.80;42.80;;;;;;5081652;28;20035;-50
2021/03/21 10:58:36;;;;;;;7.75;1.45;;;20.80;43.00;;;;;;5084906;28;20479;-50
2021/03/21 11:01:17;;;;;;;7.35;2.03;;;20.70;42.90;;;;;;5093118;28;20032;-48
2021/03/21 11:03:57;;;;;;;6.95;1.50;;;20.70;43.00;;;;;;5092789;28;20089;-47
2021/03/21 11:06:28;;;;;;;6.68;1.17;;;20.70;43.10;;;;;;5076812;28;20758;-48
2021/03/21 11:08:54;;;;;;;3.60;1.20;;;20.70;43.00;;;;;;5080256;28;20028;-50
2021/03/21 11:11:32;;;;;;;6.10;1.60;;;20.70;42.80;;;;;;5078203;28;20426;-49
2021/03/21 11:14:13;;;;;;;2.33;1.02;;;20.70;43.00;;;;;;5080858;28;20179;-49
2021/03/21 11:16:39;;;;;;;2.75;1.00;;;20.70;43.00;;;;;;5072100;28;20039;-49
2021/03/21 11:19:12;;;;;;;3.08;1.10;;;20.70;43.10;;;;;;5076527;28;20024;-50
2021/03/21 11:21:39;;;;;;;3.35;1.20;;;20.70;43.00;;;;;;5092789;28;20025;-50
2021/03/21 11:24:18;;;;;;;3.13;1.17;;;20.70;43.10;;;;;;5082066;28;20031;-51
2021/03/21 11:26:43;;;;;;;3.35;0.90;;;20.70;43.10;;;;;;5086596;28;20047;-50
2021/03/21 11:29:35;;;;;;;3.83;0.95;;;20.70;43.00;;;;;;5073452;28;20028;-49
2021/03/21 11:32:25;;;;;;;1.88;0.88;;;20.70;42.90;;;;;;5073153;28;20032;-48
2021/03/21 11:35:03;;;;;;;1.10;0.90;;;20.70;43.10;;;;;;5076606;28;20056;-48
2021/03/21 11:37:33;;;;;;;2.83;1.08;;;20.60;42.80;;;;;;5085182;28;20028;-49
2021/03/21 11:40:14;;;;;;;1.65;0.90;;;20.70;42.80;;;;;;5076172;28;20016;-46
2021/03/21 11:42:42;;;;;;;3.22;1.00;;;20.70;42.90;;;;;;5084248;28;20024;-50
2021/03/21 11:45:16;;;;;;;4.30;1.30;;;20.70;43.00;;;;;;5090698;28;20060;-46
2021/03/21 11:47:48;;;;;;;4.13;1.05;;;20.70;42.90;;;;;;5075211;28;20023;-48
2021/03/21 11:50:26;;;;;;;2.70;0.93;;;20.70;42.90;;;;;;5092728;28;20032;-46
2021/03/21 11:52:53;;;;;;;4.30;1.20;;;20.70;43.00;;;;;;5072032;28;20031;-46
2021/03/21 11:55:27;;;;;;;1.65;0.82;;;20.60;42.80;;;;;;5079240;28;20027;-46
2021/03/21 11:58:24;;;;;;;3.80;1.13;;;20.70;42.90;;;;;;5090289;28;20040;-45
2021/03/21 12:01:01;;;;;;;1.83;0.82;;;20.70;42.80;;;;;;5047983;28;20041;-48
2021/03/21 12:03:28;;;;;;;1.75;0.90;;;20.60;42.80;;;;;;5087862;28;20055;-46
2021/03/21 12:06:01;;;;;;;2.70;1.15;;;20.60;42.80;;;;;;5091488;28;20052;-48
2021/03/21 12:08:41;;;;;;;1.27;0.80;;;20.60;42.70;;;;;;5086740;28;20036;-46
2021/03/21 12:11:23;;;;;;;1.10;0.90;;;20.60;42.90;;;;;;5090377;28;20043;-46
2021/03/21 12:13:49;;;;;;;5.38;1.17;;;20.60;42.90;;;;;;5091102;28;20025;-46
2021/03/21 12:16:37;;;;;;;3.45;0.98;;;20.60;42.90;;;;;;5090670;28;20366;-49
2021/03/21 12:19:25;;;;;;;1.88;1.02;;;20.60;42.80;;;;;;5078519;28;20027;-47
2021/03/21 12:21:53;;;;;;;3.67;1.30;;;20.60;42.80;;;;;;5090530;28;20044;-47
2021/03/21 12:24:22;;;;;;;2.13;1.00;;;20.60;42.70;;;;;;5084373;28;20028;-47
2021/03/21 12:26:52;;;;;;;2.70;0.70;;;20.60;42.70;;;;;;5071176;28;20478;-47
2021/03/21 12:29:24;;;;;;;3.50;1.05;;;20.60;42.80;;;;;;5089889;28;20531;-46
2021/03/21 12:31:55;;;;;;;1.10;0.90;;;20.60;42.60;;;;;;5089823;28;20028;-46
2021/03/21 12:34:42;;;;;;;2.30;0.90;;;20.60;42.60;;;;;;5091368;28;20028;-50
2021/03/21 12:37:19;;;;;;;1.63;0.88;;;20.60;42.50;;;;;;5083768;28;20036;-46
2021/03/21 12:39:50;;;;;;;2.45;0.82;;;20.60;42.60;;;;;;5084936;28;20047;-49
2021/03/21 12:42:45;;;;;;;2.58;1.20;;;20.60;42.70;;;;;;5091744;28;20103;-49
2021/03/21 12:45:22;;;;;;;2.47;0.75;;;20.60;42.80;;;;;;5087718;28;20024;-48
2021/03/21 12:47:54;;;;;;;1.02;0.68;;;20.60;42.60;;;;;;5082602;28;20032;-48
2021/03/21 12:50:37;;;;;;;1.48;0.65;;;20.50;42.70;;;;;;5071834;28;20397;-50
2021/03/21 12:53:19;;;;;;;2.25;1.00;;;20.50;42.70;;;;;;5085364;28;20024;-46
2021/03/21 12:55:44;;;;;;;1.52;0.80;;;20.60;42.60;;;;;;5079640;28;20028;-47
2021/03/21 12:58:10;;;;;;;1.63;0.80;;;20.50;42.70;;;;;;5071997;28;20111;-47
2021/03/21 13:00:36;;;;;;;1.52;0.82;;;20.50;42.70;;;;;;5089239;28;20032;-46
2021/03/21 13:03:05;;;;;;;1.20;0.80;;;20.50;42.70;;;;;;5090702;28;20574;-48
2021/03/21 13:05:41;;;;;;;1.33;0.70;;;20.50;42.70;;;;;;5075439;28;20048;-45
2021/03/21 13:08:08;;;;;;;2.65;0.80;;;20.50;42.60;;;;;;5071240;28;20064;-46
2021/03/21 13:10:34;;;;;;;1.92;0.98;;;20.60;42.60;;;;;;5087772;28;20032;-45
2021/03/21 13:13:01;;;;;;;1.88;0.90;;;20.60;42.70;;;;;;5088935;28;20107;-46
2021/03/21 13:15:28;;;;;;;0.85;0.70;;;20.50;42.60;;;;;;5087821;28;20035;-46
2021/03/21 13:17:53;;;;;;;2.40;0.80;;;20.50;42.70;;;;;;5090521;28;20123;-46
2021/03/21 13:20:21;;;;;;;0.88;0.60;;;20.50;42.70;;;;;;5087353;28;20114;-47
2021/03/21 13:22:48;;;;;;;1.42;0.77;;;20.50;42.70;;;;;;5070987;28;20029;-46
2021/03/21 13:25:24;;;;;;;1.67;0.60;;;20.50;42.60;;;;;;5071376;28;20028;-47
2021/03/21 13:27:55;;;;;;;1.00;0.82;;;20.50;42.60;;;;;;5071765;28;20111;-48
2021/03/21 13:30:23;;;;;;;1.10;0.70;;;20.50;42.60;;;;;;5071602;28;20120;-46
2021/03/21 13:32:49;;;;;;;0.80;0.63;;;20.50;42.50;;;;;;5085398;28;20043;-47
2021/03/21 13:35:17;;;;;;;1.60;0.90;;;20.50;42.60;;;;;;5089065;28;20158;-46
2021/03/21 13:37:42;;;;;;;1.02;0.80;;;20.50;42.60;;;;;;5090727;28;20028;-49
2021/03/21 13:40:11;;;;;;;1.48;0.73;;;20.50;42.60;;;;;;5073720;28;20028;-47